Time;durP1;ratioP1;P1;durP2;ratioP2;P2;SDS_P1;SDS_P2;PMS_P1;PMS_P2;Temp;Humidity;BMP_temperature;BMP_pressure;BME280_temperature;BME280_humidity;BME280_pressure;Samples;Min_cycle;Max_cycle;Signal;HPM_P1;HPM_P2
2023/09/26 00:00:56;;;;;;;13.10;7.13;;;;;;;;;;4988781;28;25157;-72
2023/09/26 00:03:22;;;;;;;10.73;6.07;;;;;;;;;;4993010;28;25086;-74
2023/09/26 00:05:48;;;;;;;9.57;5.85;;;;;;;;;;4993080;28;25058;-72
2023/09/26 00:08:15;;;;;;;14.82;6.78;;;;;;;;;;4984445;28;25113;-71
2023/09/26 00:10:41;;;;;;;13.70;7.38;;;;;;;;;;4981645;28;25055;-72
2023/09/26 00:13:07;;;;;;;12.70;7.47;;;;;;;;;;4997160;28;25062;-72
2023/09/26 00:15:33;;;;;;;11.60;6.82;;;;;;;;;;4989851;28;25065;-72
2023/09/26 00:17:59;;;;;;;15.23;7.05;;;;;;;;;;4983595;28;25048;-72
2023/09/26 00:20:30;;;;;;;14.88;7.35;;;;;;;;;;4993092;28;25083;-73
2023/09/26 00:22:56;;;;;;;14.55;8.05;;;;;;;;;;4993049;28;25055;-72
2023/09/26 00:25:23;;;;;;;13.18;7.35;;;;;;;;;;4992709;28;25077;-71
2023/09/26 00:27:49;;;;;;;11.75;8.27;;;;;;;;;;4996038;28;25073;-74
2023/09/26 00:30:15;;;;;;;15.63;8.55;;;;;;;;;;4977496;28;25066;-73
2023/09/26 00:32:41;;;;;;;14.52;8.88;;;;;;;;;;4966921;28;25098;-73
2023/09/26 00:35:11;;;;;;;14.45;9.20;;;;;;;;;;4987885;28;25049;-72
2023/09/26 00:37:38;;;;;;;16.13;9.68;;;;;;;;;;4988595;28;25074;-71
2023/09/26 00:40:06;;;;;;;15.48;8.68;;;;;;;;;;4986424;28;25093;-72
2023/09/26 00:42:33;;;;;;;15.75;8.55;;;;;;;;;;4983283;28;25062;-72
2023/09/26 00:44:59;;;;;;;12.73;8.65;;;;;;;;;;4995505;28;25059;-71
2023/09/26 00:47:25;;;;;;;14.13;9.75;;;;;;;;;;4984640;28;25057;-73
2023/09/26 00:49:51;;;;;;;18.45;11.40;;;;;;;;;;4980962;28;25084;-72
2023/09/26 00:52:17;;;;;;;20.33;11.85;;;;;;;;;;4982712;28;25096;-72
2023/09/26 00:54:43;;;;;;;23.25;12.57;;;;;;;;;;4982200;28;25069;-71
2023/09/26 00:57:10;;;;;;;21.45;12.90;;;;;;;;;;4987692;28;25129;-73
2023/09/26 00:59:39;;;;;;;22.50;12.73;;;;;;;;;;4973291;28;25062;-72
2023/09/26 01:02:05;;;;;;;18.08;11.63;;;;;;;;;;4984536;28;25049;-73
2023/09/26 01:04:32;;;;;;;20.98;12.05;;;;;;;;;;4979442;28;25052;-73
2023/09/26 01:06:58;;;;;;;21.35;12.20;;;;;;;;;;4987996;28;25048;-72
2023/09/26 01:09:24;;;;;;;23.75;14.30;;;;;;;;;;4981295;28;25061;-72
2023/09/26 01:11:50;;;;;;;26.00;13.90;;;;;;;;;;4992466;28;25173;-72
2023/09/26 01:14:16;;;;;;;24.80;15.25;;;;;;;;;;4983842;28;25080;-72
2023/09/26 01:16:42;;;;;;;25.20;15.15;;;;;;;;;;4992772;28;25044;-71
2023/09/26 01:19:08;;;;;;;22.73;14.55;;;;;;;;;;4978891;28;25073;-72
2023/09/26 01:21:34;;;;;;;23.58;14.55;;;;;;;;;;4967531;28;25076;-73
2023/09/26 01:24:00;;;;;;;24.52;13.68;;;;;;;;;;4988196;28;25108;-73
2023/09/26 01:26:33;;;;;;;22.45;12.95;;;;;;;;;;4987684;28;24928;-72
2023/09/26 01:28:59;;;;;;;25.92;15.93;;;;;;;;;;4971404;28;25103;-72
2023/09/26 01:31:26;;;;;;;23.67;15.57;;;;;;;;;;4988539;28;25061;-71
2023/09/26 01:33:51;;;;;;;25.35;15.40;;;;;;;;;;4991121;28;25076;-72
2023/09/26 01:36:18;;;;;;;27.63;16.65;;;;;;;;;;4973329;28;25126;-71
2023/09/26 01:38:43;;;;;;;29.00;17.55;;;;;;;;;;4987237;28;25010;-71
2023/09/26 01:41:09;;;;;;;26.67;16.40;;;;;;;;;;4988765;28;25165;-71
2023/09/26 01:43:36;;;;;;;26.27;17.02;;;;;;;;;;4987414;28;25081;-72
2023/09/26 01:46:03;;;;;;;25.10;15.43;;;;;;;;;;4986129;28;25124;-73
2023/09/26 01:48:29;;;;;;;31.50;19.40;;;;;;;;;;4975584;28;25137;-71
2023/09/26 01:50:55;;;;;;;26.83;17.55;;;;;;;;;;4982223;28;25108;-71
2023/09/26 01:53:21;;;;;;;24.88;16.70;;;;;;;;;;4981719;28;25091;-71
2023/09/26 01:55:47;;;;;;;26.65;17.25;;;;;;;;;;4966756;28;25063;-72
2023/09/26 01:58:13;;;;;;;28.30;18.08;;;;;;;;;;4984033;28;25064;-73
2023/09/26 02:00:39;;;;;;;26.17;17.88;;;;;;;;;;4985517;28;25054;-72
2023/09/26 02:03:05;;;;;;;29.85;20.15;;;;;;;;;;4983764;28;25064;-72
2023/09/26 02:05:31;;;;;;;27.63;20.00;;;;;;;;;;4986637;28;25067;-71
2023/09/26 02:07:57;;;;;;;27.65;19.95;;;;;;;;;;4989198;28;25072;-71
2023/09/26 02:10:23;;;;;;;30.25;19.20;;;;;;;;;;4987617;28;25076;-72
2023/09/26 02:12:51;;;;;;;32.13;20.17;;;;;;;;;;4988931;28;25064;-74
2023/09/26 02:15:17;;;;;;;29.67;20.30;;;;;;;;;;4991189;28;25067;-72
2023/09/26 02:17:43;;;;;;;33.60;20.48;;;;;;;;;;4978571;28;25061;-73
2023/09/26 02:20:14;;;;;;;28.05;19.55;;;;;;;;;;4961972;28;25079;-72
2023/09/26 02:22:41;;;;;;;32.13;20.02;;;;;;;;;;4987491;28;25069;-71
2023/09/26 02:25:08;;;;;;;30.05;19.85;;;;;;;;;;4991632;28;25138;-72
2023/09/26 02:27:34;;;;;;;31.00;20.10;;;;;;;;;;4986182;28;25106;-71
2023/09/26 02:30:00;;;;;;;30.33;20.33;;;;;;;;;;4970980;28;25097;-71
2023/09/26 02:32:26;;;;;;;35.67;21.25;;;;;;;;;;4991935;28;25108;-71
2023/09/26 02:34:52;;;;;;;33.45;20.70;;;;;;;;;;4984318;28;25095;-71
2023/09/26 02:37:18;;;;;;;28.80;21.17;;;;;;;;;;4977189;28;25140;-71
2023/09/26 02:39:44;;;;;;;26.65;19.63;;;;;;;;;;4993749;28;25053;-71
2023/09/26 02:42:10;;;;;;;26.55;19.38;;;;;;;;;;4988594;28;25143;-71
2023/09/26 02:44:36;;;;;;;30.05;19.40;;;;;;;;;;5000983;28;25090;-72
2023/09/26 02:47:01;;;;;;;31.05;19.98;;;;;;;;;;4983173;28;25123;-71
2023/09/26 02:49:28;;;;;;;29.05;18.50;;;;;;;;;;4968861;28;25158;-69
2023/09/26 02:51:54;;;;;;;27.65;18.63;;;;;;;;;;4992676;28;25078;-72
2023/09/26 02:54:20;;;;;;;29.27;20.35;;;;;;;;;;4985358;28;25114;-72
2023/09/26 02:56:46;;;;;;;25.85;18.88;;;;;;;;;;4977347;28;25080;-71
2023/09/26 02:59:12;;;;;;;29.40;19.20;;;;;;;;;;4989015;28;25090;-72
2023/09/26 03:01:38;;;;;;;28.45;19.40;;;;;;;;;;4963654;28;25066;-71
2023/09/26 03:04:04;;;;;;;25.50;18.25;;;;;;;;;;4992976;28;25060;-71
2023/09/26 03:06:30;;;;;;;26.98;18.80;;;;;;;;;;4993374;28;25072;-72
2023/09/26 03:08:56;;;;;;;28.65;19.25;;;;;;;;;;4989475;28;25075;-73
2023/09/26 03:11:22;;;;;;;29.33;19.48;;;;;;;;;;4973346;28;25162;-71
2023/09/26 03:13:48;;;;;;;28.63;19.02;;;;;;;;;;4978958;28;25148;-71
2023/09/26 03:16:14;;;;;;;26.35;19.00;;;;;;;;;;4980014;28;25141;-74
2023/09/26 03:18:41;;;;;;;30.90;18.73;;;;;;;;;;4987031;28;25071;-72
2023/09/26 03:21:07;;;;;;;27.70;18.30;;;;;;;;;;4985313;28;25117;-72
2023/09/26 03:23:34;;;;;;;25.58;18.70;;;;;;;;;;4982548;28;25070;-72
2023/09/26 03:26:00;;;;;;;28.33;19.17;;;;;;;;;;4985762;28;25083;-72
2023/09/26 03:28:26;;;;;;;27.58;18.55;;;;;;;;;;4983683;28;25157;-71
2023/09/26 03:30:52;;;;;;;26.35;18.45;;;;;;;;;;4986314;28;25078;-72
2023/09/26 03:33:18;;;;;;;31.58;18.63;;;;;;;;;;4985431;28;25068;-72
2023/09/26 03:35:44;;;;;;;23.77;17.05;;;;;;;;;;4988315;28;25083;-71
2023/09/26 03:38:10;;;;;;;26.88;18.67;;;;;;;;;;4982430;28;25062;-70
2023/09/26 03:40:37;;;;;;;28.15;18.00;;;;;;;;;;4994661;28;25143;-71
2023/09/26 03:43:02;;;;;;;25.65;17.35;;;;;;;;;;4986084;28;25100;-71
2023/09/26 03:45:28;;;;;;;25.60;17.83;;;;;;;;;;4971534;28;25127;-71
2023/09/26 03:47:54;;;;;;;26.52;17.52;;;;;;;;;;4988724;28;25109;-74
2023/09/26 03:50:20;;;;;;;27.00;18.42;;;;;;;;;;4993064;28;25102;-71
2023/09/26 03:52:46;;;;;;;26.08;17.70;;;;;;;;;;4988557;28;25069;-70
2023/09/26 03:55:12;;;;;;;26.52;17.60;;;;;;;;;;4995480;28;25069;-73
2023/09/26 03:57:40;;;;;;;28.23;17.05;;;;;;;;;;4991609;28;25061;-71
2023/09/26 04:00:13;;;;;;;27.35;17.77;;;;;;;;;;5001544;28;25109;-70
2023/09/26 04:02:39;;;;;;;24.92;17.42;;;;;;;;;;4995348;28;25111;-71
2023/09/26 04:05:05;;;;;;;24.35;17.38;;;;;;;;;;4994088;28;25055;-71
2023/09/26 04:07:31;;;;;;;23.77;16.45;;;;;;;;;;4986379;28;25173;-71
2023/09/26 04:09:57;;;;;;;25.17;16.73;;;;;;;;;;4985449;28;25127;-73
2023/09/26 04:12:24;;;;;;;26.73;17.95;;;;;;;;;;4982597;28;25142;-71
2023/09/26 04:14:50;;;;;;;24.67;16.25;;;;;;;;;;4985917;28;25081;-73
2023/09/26 04:17:16;;;;;;;22.83;17.20;;;;;;;;;;4988119;28;25074;-71
2023/09/26 04:19:46;;;;;;;26.65;17.27;;;;;;;;;;4980667;28;25079;-71
2023/09/26 04:22:12;;;;;;;26.63;18.02;;;;;;;;;;4985410;28;25076;-71
2023/09/26 04:24:38;;;;;;;21.60;15.68;;;;;;;;;;4989263;28;25080;-70
2023/09/26 04:27:04;;;;;;;21.02;16.23;;;;;;;;;;4986032;28;25053;-71
2023/09/26 04:29:30;;;;;;;22.92;15.02;;;;;;;;;;4984587;28;25062;-72
2023/09/26 04:31:56;;;;;;;25.27;15.10;;;;;;;;;;4981008;28;25134;-72
2023/09/26 04:34:26;;;;;;;21.13;14.90;;;;;;;;;;4964024;28;25112;-71
2023/09/26 04:36:52;;;;;;;21.23;14.02;;;;;;;;;;4966482;28;25067;-72
2023/09/26 04:39:18;;;;;;;24.42;15.32;;;;;;;;;;4991822;28;25061;-72
2023/09/26 04:41:45;;;;;;;23.92;14.63;;;;;;;;;;4981133;28;25130;-72
2023/09/26 04:44:11;;;;;;;26.30;16.17;;;;;;;;;;4986046;28;25081;-71
2023/09/26 04:46:37;;;;;;;23.58;14.50;;;;;;;;;;4982093;28;25052;-72
2023/09/26 04:49:03;;;;;;;24.60;16.10;;;;;;;;;;4995869;28;25066;-70
2023/09/26 04:51:29;;;;;;;19.08;14.65;;;;;;;;;;4971114;28;25087;-72
2023/09/26 04:53:58;;;;;;;20.42;14.75;;;;;;;;;;4987006;28;25101;-71
2023/09/26 04:56:24;;;;;;;24.73;14.63;;;;;;;;;;4988146;28;25144;-72
2023/09/26 04:58:50;;;;;;;19.45;15.07;;;;;;;;;;4987991;28;25078;-71
2023/09/26 05:01:16;;;;;;;22.88;15.07;;;;;;;;;;4996593;28;25077;-71
2023/09/26 05:03:43;;;;;;;22.67;15.27;;;;;;;;;;4994243;28;25066;-71
2023/09/26 05:06:09;;;;;;;21.38;15.40;;;;;;;;;;4993380;28;25067;-71
2023/09/26 05:08:36;;;;;;;22.55;16.13;;;;;;;;;;4987338;28;25052;-70
2023/09/26 05:11:02;;;;;;;20.48;15.13;;;;;;;;;;4989722;28;25150;-72
2023/09/26 05:13:28;;;;;;;20.17;13.98;;;;;;;;;;4989566;28;25070;-72
2023/09/26 05:15:54;;;;;;;19.15;13.95;;;;;;;;;;4983483;28;25142;-69
2023/09/26 05:18:20;;;;;;;22.60;15.85;;;;;;;;;;4973306;28;25091;-73
2023/09/26 05:20:46;;;;;;;19.48;14.65;;;;;;;;;;4983854;28;25075;-70
2023/09/26 05:23:12;;;;;;;18.67;14.38;;;;;;;;;;4982658;28;25063;-72
2023/09/26 05:25:38;;;;;;;20.38;13.73;;;;;;;;;;4981752;28;25109;-72
2023/09/26 05:28:05;;;;;;;17.83;13.25;;;;;;;;;;4975791;28;25065;-73
2023/09/26 05:30:31;;;;;;;22.92;14.45;;;;;;;;;;4978890;28;25058;-73
2023/09/26 05:32:57;;;;;;;18.98;13.90;;;;;;;;;;4983650;28;25151;-73
2023/09/26 05:35:23;;;;;;;25.10;15.55;;;;;;;;;;4980980;28;25056;-74
2023/09/26 05:37:49;;;;;;;21.17;14.68;;;;;;;;;;4980072;28;25148;-73
2023/09/26 05:40:15;;;;;;;21.33;13.88;;;;;;;;;;4983214;28;25091;-72
2023/09/26 05:42:41;;;;;;;18.13;13.18;;;;;;;;;;4979948;28;25056;-73
2023/09/26 05:45:08;;;;;;;17.80;12.85;;;;;;;;;;4966229;28;25132;-73
2023/09/26 05:47:35;;;;;;;18.85;13.43;;;;;;;;;;4977274;28;25068;-72
2023/09/26 05:50:03;;;;;;;18.70;13.60;;;;;;;;;;4981366;28;25060;-73
2023/09/26 05:52:31;;;;;;;17.83;12.57;;;;;;;;;;4962077;28;25089;-73
2023/09/26 05:54:57;;;;;;;17.60;12.88;;;;;;;;;;4983383;28;25074;-71
2023/09/26 05:57:23;;;;;;;16.55;12.63;;;;;;;;;;4987849;28;25062;-71
2023/09/26 05:59:49;;;;;;;23.45;12.45;;;;;;;;;;4966015;28;25092;-71
2023/09/26 06:02:17;;;;;;;18.85;12.52;;;;;;;;;;4981775;28;25151;-70
2023/09/26 06:04:43;;;;;;;16.95;12.85;;;;;;;;;;4979389;28;25078;-72
2023/09/26 06:07:10;;;;;;;17.60;12.82;;;;;;;;;;4981157;28;25117;-71
2023/09/26 06:09:36;;;;;;;15.05;12.13;;;;;;;;;;4977150;28;25046;-71
2023/09/26 06:12:06;;;;;;;18.77;13.20;;;;;;;;;;4977010;28;25110;-70
2023/09/26 06:14:32;;;;;;;15.75;12.50;;;;;;;;;;4979672;28;25101;-71
2023/09/26 06:16:58;;;;;;;18.95;12.30;;;;;;;;;;4989844;28;25065;-71
2023/09/26 06:19:24;;;;;;;18.38;13.13;;;;;;;;;;4987427;28;25065;-70
2023/09/26 06:21:50;;;;;;;15.82;12.60;;;;;;;;;;4984437;28;25059;-73
2023/09/26 06:24:16;;;;;;;18.40;12.35;;;;;;;;;;4984356;28;25089;-72
2023/09/26 06:26:42;;;;;;;14.10;11.90;;;;;;;;;;4985537;28;25028;-69
2023/09/26 06:29:08;;;;;;;16.00;11.35;;;;;;;;;;4972812;28;25085;-71
2023/09/26 06:31:34;;;;;;;16.40;11.82;;;;;;;;;;4973317;28;25060;-72
2023/09/26 06:34:01;;;;;;;17.23;11.80;;;;;;;;;;4984223;28;25069;-72
2023/09/26 06:36:30;;;;;;;16.27;11.32;;;;;;;;;;4981675;28;25116;-71
2023/09/26 06:38:57;;;;;;;14.18;10.52;;;;;;;;;;4982872;28;25127;-72
2023/09/26 06:41:23;;;;;;;15.73;11.27;;;;;;;;;;4984427;28;25163;-73
2023/09/26 06:43:49;;;;;;;15.52;11.68;;;;;;;;;;4979321;28;25058;-71
2023/09/26 06:46:15;;;;;;;15.10;10.68;;;;;;;;;;4978526;28;25054;-71
2023/09/26 06:48:42;;;;;;;18.33;10.50;;;;;;;;;;4980740;28;25156;-72
2023/09/26 06:51:08;;;;;;;13.73;11.18;;;;;;;;;;4980715;28;25064;-72
2023/09/26 06:53:34;;;;;;;14.75;11.10;;;;;;;;;;4978413;28;25101;-72
2023/09/26 06:56:04;;;;;;;19.63;12.40;;;;;;;;;;4966020;28;25084;-71
2023/09/26 06:58:30;;;;;;;16.35;10.52;;;;;;;;;;4978609;28;25058;-73
2023/09/26 07:00:56;;;;;;;15.38;10.07;;;;;;;;;;4986394;28;25114;-72
2023/09/26 07:03:22;;;;;;;16.70;11.93;;;;;;;;;;4986648;28;25063;-73
2023/09/26 07:05:48;;;;;;;16.90;11.50;;;;;;;;;;4967884;28;25068;-74
2023/09/26 07:08:15;;;;;;;15.65;10.70;;;;;;;;;;4986288;28;25065;-72
2023/09/26 07:10:42;;;;;;;19.20;11.27;;;;;;;;;;4983445;28;25060;-72
2023/09/26 07:13:08;;;;;;;17.50;10.93;;;;;;;;;;4976943;28;25071;-73
2023/09/26 07:15:34;;;;;;;17.15;11.38;;;;;;;;;;4982356;28;25114;-72
2023/09/26 07:18:05;;;;;;;16.15;10.50;;;;;;;;;;4975708;28;25103;-73
2023/09/26 07:20:31;;;;;;;18.48;11.38;;;;;;;;;;4982729;28;25092;-73
2023/09/26 07:22:57;;;;;;;19.23;11.75;;;;;;;;;;4981798;28;25076;-72
2023/09/26 07:25:23;;;;;;;14.95;10.07;;;;;;;;;;4966531;28;25117;-72
2023/09/26 07:27:49;;;;;;;14.32;10.80;;;;;;;;;;4976222;28;25128;-73
2023/09/26 07:30:15;;;;;;;17.02;11.13;;;;;;;;;;4962097;28;25073;-72
2023/09/26 07:32:42;;;;;;;13.73;9.85;;;;;;;;;;4981342;28;25072;-72
2023/09/26 07:35:08;;;;;;;18.55;10.75;;;;;;;;;;4980708;28;25110;-73
2023/09/26 07:37:34;;;;;;;13.80;10.27;;;;;;;;;;4987874;28;25091;-72
2023/09/26 07:40:03;;;;;;;16.05;10.73;;;;;;;;;;4979200;28;25236;-73
2023/09/26 07:42:29;;;;;;;18.27;10.38;;;;;;;;;;4986289;28;25111;-73
2023/09/26 07:45:00;;;;;;;14.65;10.98;;;;;;;;;;4986299;28;25144;-71
2023/09/26 07:47:26;;;;;;;15.52;10.73;;;;;;;;;;4985163;28;25082;-71
2023/09/26 07:49:52;;;;;;;12.63;10.50;;;;;;;;;;4985583;28;25049;-72
2023/09/26 07:52:18;;;;;;;17.23;10.15;;;;;;;;;;4980153;28;25081;-71
2023/09/26 07:54:44;;;;;;;24.13;10.40;;;;;;;;;;4983235;28;25081;-72
2023/09/26 07:57:10;;;;;;;19.00;10.50;;;;;;;;;;4980319;28;25146;-72
2023/09/26 07:59:37;;;;;;;13.93;10.30;;;;;;;;;;4979190;28;25080;-72
2023/09/26 08:02:03;;;;;;;15.55;9.95;;;;;;;;;;4981866;28;25128;-72
2023/09/26 08:04:29;;;;;;;14.73;10.40;;;;;;;;;;4984837;28;25076;-71
2023/09/26 08:06:55;;;;;;;12.43;9.48;;;;;;;;;;4981685;28;25059;-72
2023/09/26 08:09:21;;;;;;;14.75;9.02;;;;;;;;;;4981642;28;25103;-72
2023/09/26 08:11:47;;;;;;;11.77;9.00;;;;;;;;;;4986999;28;25073;-72
2023/09/26 08:14:13;;;;;;;19.77;9.82;;;;;;;;;;4971784;28;25140;-72
2023/09/26 08:16:39;;;;;;;13.77;9.23;;;;;;;;;;4980868;28;25069;-72
2023/09/26 08:19:05;;;;;;;14.63;9.32;;;;;;;;;;4988942;28;25166;-73
2023/09/26 08:21:31;;;;;;;13.45;9.05;;;;;;;;;;4987392;28;25069;-71
2023/09/26 08:23:57;;;;;;;15.23;9.18;;;;;;;;;;4982148;28;25066;-74
2023/09/26 08:26:23;;;;;;;13.40;8.48;;;;;;;;;;4980819;28;25144;-72
2023/09/26 08:28:49;;;;;;;13.07;9.38;;;;;;;;;;4979104;28;25064;-73
2023/09/26 08:31:16;;;;;;;16.55;10.00;;;;;;;;;;4985512;28;25078;-72
2023/09/26 08:33:46;;;;;;;13.82;9.70;;;;;;;;;;4980841;28;25073;-72
2023/09/26 08:36:15;;;;;;;14.52;9.63;;;;;;;;;;4983095;28;25070;-72
2023/09/26 08:38:43;;;;;;;14.23;10.20;;;;;;;;;;4987270;28;25064;-72
2023/09/26 08:41:10;;;;;;;14.45;9.13;;;;;;;;;;4982753;28;25064;-72
2023/09/26 08:43:36;;;;;;;13.30;9.77;;;;;;;;;;4967242;28;25135;-72
2023/09/26 08:46:04;;;;;;;12.68;8.77;;;;;;;;;;4985749;28;25067;-73
2023/09/26 08:48:30;;;;;;;13.82;8.38;;;;;;;;;;4985440;28;25067;-73
2023/09/26 08:50:56;;;;;;;13.35;8.70;;;;;;;;;;4978951;28;25102;-72
2023/09/26 08:53:22;;;;;;;16.08;8.45;;;;;;;;;;4979645;28;25171;-72
2023/09/26 08:55:51;;;;;;;12.52;8.65;;;;;;;;;;4963257;28;25140;-74
2023/09/26 08:58:17;;;;;;;13.18;8.13;;;;;;;;;;4983365;28;25145;-73
2023/09/26 09:00:43;;;;;;;14.13;7.97;;;;;;;;;;4983199;28;25097;-72
2023/09/26 09:03:10;;;;;;;13.85;9.38;;;;;;;;;;4982086;28;25057;-72
2023/09/26 09:05:36;;;;;;;15.48;8.68;;;;;;;;;;4982554;28;25076;-72
2023/09/26 09:08:02;;;;;;;17.48;8.98;;;;;;;;;;4982555;28;25072;-73
2023/09/26 09:10:28;;;;;;;12.02;8.05;;;;;;;;;;4979261;28;25153;-74
2023/09/26 09:13:11;;;;;;;11.02;8.20;;;;;;;;;;4984362;28;25056;-71
2023/09/26 09:15:39;;;;;;;12.38;8.30;;;;;;;;;;4991461;28;25083;-73
2023/09/26 09:18:05;;;;;;;12.73;8.65;;;;;;;;;;4992204;28;25056;-72
2023/09/26 09:20:35;;;;;;;13.65;8.63;;;;;;;;;;4969608;28;25086;-71
2023/09/26 09:23:07;;;;;;;14.75;9.20;;;;;;;;;;4972511;28;25156;-70
2023/09/26 09:25:38;;;;;;;13.45;9.38;;;;;;;;;;4981901;28;25077;-72
2023/09/26 09:28:05;;;;;;;12.35;8.38;;;;;;;;;;4980960;28;25072;-72
2023/09/26 09:30:36;;;;;;;14.85;9.35;;;;;;;;;;4979030;28;25076;-72
2023/09/26 09:33:02;;;;;;;13.27;8.65;;;;;;;;;;4992598;28;25058;-73
2023/09/26 09:35:30;;;;;;;12.15;8.60;;;;;;;;;;4986795;28;25072;-73
2023/09/26 09:37:57;;;;;;;13.80;8.10;;;;;;;;;;4982964;28;25096;-72
2023/09/26 09:40:24;;;;;;;12.57;8.18;;;;;;;;;;4966973;28;25056;-72
2023/09/26 09:42:51;;;;;;;13.07;8.88;;;;;;;;;;4991469;28;25056;-72
2023/09/26 09:45:17;;;;;;;12.73;8.02;;;;;;;;;;4979848;28;25064;-73
2023/09/26 09:47:47;;;;;;;12.77;7.75;;;;;;;;;;4982663;28;25058;-73
2023/09/26 09:50:13;;;;;;;13.70;7.13;;;;;;;;;;4960333;28;25160;-72
2023/09/26 09:52:45;;;;;;;11.88;8.10;;;;;;;;;;4966293;28;25071;-74
2023/09/26 09:55:16;;;;;;;16.10;8.63;;;;;;;;;;4969772;28;25148;-72
2023/09/26 09:57:45;;;;;;;12.40;7.43;;;;;;;;;;4981412;28;25059;-71
2023/09/26 10:00:13;;;;;;;14.40;7.80;;;;;;;;;;4985614;28;25049;-72
2023/09/26 10:02:40;;;;;;;12.45;7.30;;;;;;;;;;4986858;28;25055;-72
2023/09/26 10:05:12;;;;;;;12.18;7.70;;;;;;;;;;4980545;28;25056;-73
2023/09/26 10:07:40;;;;;;;10.27;6.97;;;;;;;;;;4976284;28;25078;-73
2023/09/26 10:10:09;;;;;;;11.02;7.32;;;;;;;;;;4972141;28;25071;-72
2023/09/26 10:12:36;;;;;;;10.30;6.88;;;;;;;;;;4970481;28;25059;-71
2023/09/26 10:15:03;;;;;;;13.90;8.45;;;;;;;;;;4982291;28;25167;-72
2023/09/26 10:17:29;;;;;;;14.25;7.68;;;;;;;;;;4976541;28;25146;-73
2023/09/26 10:19:56;;;;;;;10.85;7.53;;;;;;;;;;4976343;28;25096;-72
2023/09/26 10:22:27;;;;;;;16.65;8.85;;;;;;;;;;4974724;28;25135;-72
2023/09/26 10:24:54;;;;;;;14.82;8.85;;;;;;;;;;4979937;28;25074;-74
2023/09/26 10:27:24;;;;;;;10.98;8.38;;;;;;;;;;4981087;28;25158;-75
2023/09/26 10:29:52;;;;;;;15.20;8.52;;;;;;;;;;4996535;28;25069;-71
2023/09/26 10:32:22;;;;;;;11.02;8.23;;;;;;;;;;4985362;28;25082;-71
2023/09/26 10:34:48;;;;;;;13.50;7.65;;;;;;;;;;4976902;28;25094;-72
2023/09/26 10:37:21;;;;;;;12.27;7.32;;;;;;;;;;4990238;28;25106;-72
2023/09/26 10:39:47;;;;;;;12.38;8.32;;;;;;;;;;4973741;28;25148;-73
2023/09/26 10:42:14;;;;;;;16.25;7.57;;;;;;;;;;4977289;28;25158;-73
2023/09/26 10:44:40;;;;;;;9.43;7.15;;;;;;;;;;4955673;28;25052;-71
2023/09/26 10:47:07;;;;;;;11.05;6.90;;;;;;;;;;4986975;28;25074;-72
2023/09/26 10:49:33;;;;;;;12.90;6.63;;;;;;;;;;4962986;28;25165;-71
2023/09/26 10:52:01;;;;;;;10.05;6.03;;;;;;;;;;4984834;28;25151;-71
2023/09/26 10:54:27;;;;;;;12.63;5.63;;;;;;;;;;4980280;28;25139;-72
2023/09/26 10:56:54;;;;;;;9.73;5.43;;;;;;;;;;4983476;28;25115;-71
2023/09/26 10:59:20;;;;;;;8.00;5.00;;;;;;;;;;4979728;28;25059;-72
2023/09/26 11:01:46;;;;;;;12.23;5.22;;;;;;;;;;4964312;28;25052;-72
2023/09/26 11:04:12;;;;;;;5.20;4.22;;;;;;;;;;4980563;28;25102;-71
2023/09/26 11:06:38;;;;;;;10.25;5.40;;;;;;;;;;4977395;28;25074;-72
2023/09/26 11:09:04;;;;;;;9.23;4.28;;;;;;;;;;4980314;28;25077;-72
2023/09/26 11:11:30;;;;;;;6.47;4.03;;;;;;;;;;4970198;28;25156;-73
2023/09/26 11:13:56;;;;;;;7.72;4.97;;;;;;;;;;4993537;28;25052;-71
2023/09/26 11:16:22;;;;;;;8.07;5.13;;;;;;;;;;4990275;28;25053;-72
2023/09/26 11:18:57;;;;;;;9.40;4.72;;;;;;;;;;4968856;28;25057;-72
2023/09/26 11:21:23;;;;;;;7.35;4.75;;;;;;;;;;4989289;28;25082;-73
2023/09/26 11:23:49;;;;;;;9.43;4.55;;;;;;;;;;4974969;28;25072;-73
2023/09/26 11:26:16;;;;;;;9.95;5.15;;;;;;;;;;4980885;28;25065;-70
2023/09/26 11:28:42;;;;;;;7.97;4.00;;;;;;;;;;4977325;28;25051;-72
2023/09/26 11:31:08;;;;;;;7.78;4.03;;;;;;;;;;4988112;28;25131;-72
2023/09/26 11:33:34;;;;;;;7.72;3.78;;;;;;;;;;4996421;28;25132;-73
2023/09/26 11:36:01;;;;;;;7.18;3.58;;;;;;;;;;4993116;28;25080;-73
2023/09/26 11:38:27;;;;;;;7.05;3.63;;;;;;;;;;4975635;28;25061;-74
2023/09/26 11:40:57;;;;;;;6.97;3.90;;;;;;;;;;4991017;28;25072;-72
2023/09/26 11:43:23;;;;;;;7.05;4.00;;;;;;;;;;4990002;28;25045;-71
2023/09/26 11:45:49;;;;;;;7.75;4.07;;;;;;;;;;4976839;28;25067;-73
2023/09/26 11:48:15;;;;;;;7.50;3.20;;;;;;;;;;4983963;28;25062;-74
2023/09/26 11:50:41;;;;;;;5.47;3.72;;;;;;;;;;4994426;28;25073;-72
2023/09/26 11:53:07;;;;;;;4.75;2.95;;;;;;;;;;4986760;28;25063;-72
2023/09/26 11:55:35;;;;;;;5.53;3.30;;;;;;;;;;4961711;28;25056;-74
2023/09/26 11:58:01;;;;;;;6.60;3.30;;;;;;;;;;4973409;28;25056;-72
2023/09/26 12:00:27;;;;;;;5.75;3.42;;;;;;;;;;4985859;28;25064;-75
2023/09/26 12:02:53;;;;;;;4.88;2.90;;;;;;;;;;4976067;28;24911;-73
2023/09/26 12:05:20;;;;;;;16.23;3.28;;;;;;;;;;4973945;28;25145;-74
2023/09/26 12:07:50;;;;;;;8.30;3.42;;;;;;;;;;4980149;28;25126;-74
2023/09/26 12:10:16;;;;;;;9.35;3.50;;;;;;;;;;4982388;28;25087;-72
2023/09/26 12:12:42;;;;;;;4.45;2.95;;;;;;;;;;4977703;28;25058;-75
2023/09/26 12:15:18;;;;;;;4.72;3.05;;;;;;;;;;4976525;28;25057;-73
2023/09/26 12:17:45;;;;;;;5.97;3.35;;;;;;;;;;4983086;28;25175;-73
2023/09/26 12:20:11;;;;;;;6.72;3.28;;;;;;;;;;4987969;28;25108;-74
2023/09/26 12:22:37;;;;;;;5.78;3.10;;;;;;;;;;4960613;28;25109;-72
2023/09/26 12:25:03;;;;;;;8.20;3.63;;;;;;;;;;4988630;28;25056;-73
2023/09/26 12:27:29;;;;;;;8.32;3.47;;;;;;;;;;4984521;28;25157;-73
2023/09/26 12:29:55;;;;;;;6.20;2.75;;;;;;;;;;4983139;28;25102;-74
2023/09/26 12:32:21;;;;;;;7.10;3.28;;;;;;;;;;4978118;28;25096;-73
2023/09/26 12:34:48;;;;;;;7.53;3.15;;;;;;;;;;4963064;28;25054;-74
2023/09/26 12:37:14;;;;;;;6.10;2.90;;;;;;;;;;4966538;28;25069;-72
2023/09/26 12:39:40;;;;;;;6.82;2.97;;;;;;;;;;4983331;28;25078;-72
2023/09/26 12:42:06;;;;;;;4.75;2.85;;;;;;;;;;4984466;28;25083;-71
2023/09/26 12:44:37;;;;;;;8.68;3.00;;;;;;;;;;4980098;28;25101;-73
2023/09/26 12:47:03;;;;;;;5.90;3.08;;;;;;;;;;4960550;28;25178;-73
2023/09/26 12:49:29;;;;;;;4.18;2.35;;;;;;;;;;4975578;28;25158;-72
2023/09/26 12:51:55;;;;;;;4.05;2.67;;;;;;;;;;4960743;28;25050;-73
2023/09/26 12:54:22;;;;;;;3.05;2.28;;;;;;;;;;4979341;28;25084;-73
2023/09/26 12:56:48;;;;;;;5.22;2.10;;;;;;;;;;4984502;28;25183;-73
2023/09/26 12:59:14;;;;;;;2.75;1.77;;;;;;;;;;4983662;28;25048;-71
2023/09/26 13:01:40;;;;;;;6.10;2.15;;;;;;;;;;4976707;28;25071;-71
2023/09/26 13:04:07;;;;;;;4.25;2.45;;;;;;;;;;4989806;28;25065;-72
2023/09/26 13:06:33;;;;;;;4.13;2.00;;;;;;;;;;4986947;28;25069;-70
2023/09/26 13:08:59;;;;;;;3.95;2.50;;;;;;;;;;4980451;28;25069;-70
2023/09/26 13:11:25;;;;;;;5.47;2.17;;;;;;;;;;4984962;28;25058;-71
2023/09/26 13:13:51;;;;;;;3.15;2.22;;;;;;;;;;4986248;28;25070;-72
2023/09/26 13:16:17;;;;;;;2.30;1.92;;;;;;;;;;4962205;28;25054;-71
2023/09/26 13:18:43;;;;;;;5.90;1.83;;;;;;;;;;4983564;28;25056;-72
2023/09/26 13:21:09;;;;;;;4.18;2.22;;;;;;;;;;4979063;28;25078;-72
2023/09/26 13:23:35;;;;;;;2.20;1.60;;;;;;;;;;4960705;28;25061;-71
2023/09/26 13:26:01;;;;;;;4.85;2.20;;;;;;;;;;4964575;28;25061;-73
2023/09/26 13:28:27;;;;;;;6.25;2.13;;;;;;;;;;4975929;28;25140;-74
2023/09/26 13:30:53;;;;;;;2.05;1.33;;;;;;;;;;4985716;28;25077;-71
2023/09/26 13:33:20;;;;;;;3.67;2.38;;;;;;;;;;4979356;28;25134;-74
2023/09/26 13:35:46;;;;;;;3.88;1.88;;;;;;;;;;4988855;28;25080;-71
2023/09/26 13:38:12;;;;;;;3.58;1.90;;;;;;;;;;4966079;28;25069;-74
2023/09/26 13:40:43;;;;;;;5.28;1.92;;;;;;;;;;4968006;28;25072;-74
2023/09/26 13:43:09;;;;;;;3.10;2.03;;;;;;;;;;4969203;28;25169;-75
2023/09/26 13:45:35;;;;;;;2.97;2.03;;;;;;;;;;4985919;28;25102;-73
2023/09/26 13:48:01;;;;;;;2.72;1.77;;;;;;;;;;4972370;28;25067;-70
2023/09/26 13:50:27;;;;;;;2.50;1.60;;;;;;;;;;4986477;28;25072;-71
2023/09/26 13:52:53;;;;;;;6.50;1.95;;;;;;;;;;4988231;28;25110;-71
2023/09/26 13:55:19;;;;;;;5.05;1.67;;;;;;;;;;4981846;28;25128;-72
2023/09/26 13:57:45;;;;;;;2.30;1.67;;;;;;;;;;4973007;28;25065;-70
2023/09/26 14:00:12;;;;;;;2.75;1.83;;;;;;;;;;4980979;28;25082;-73
2023/09/26 14:02:38;;;;;;;6.53;2.55;;;;;;;;;;4986415;28;25057;-71
2023/09/26 14:05:04;;;;;;;4.40;1.88;;;;;;;;;;4963073;28;25070;-71
2023/09/26 14:07:31;;;;;;;4.15;2.15;;;;;;;;;;4976381;28;25145;-73
2023/09/26 14:09:58;;;;;;;6.53;2.25;;;;;;;;;;4977411;28;25081;-71
2023/09/26 14:12:24;;;;;;;2.72;1.58;;;;;;;;;;4965119;28;25070;-70
2023/09/26 14:14:50;;;;;;;5.82;2.13;;;;;;;;;;4988860;28;25066;-71
2023/09/26 14:17:16;;;;;;;2.33;1.77;;;;;;;;;;4985457;28;25067;-70
2023/09/26 14:19:42;;;;;;;4.93;2.47;;;;;;;;;;4977327;28;25139;-73
2023/09/26 14:22:08;;;;;;;2.90;2.20;;;;;;;;;;4977878;28;25089;-71